createdAt,value
2023-03-01T00:00:20.584Z,0.97
2023-03-01T00:02:47.542Z,1.40
2023-03-01T00:05:14.438Z,0.80
2023-03-01T00:07:41.526Z,0.93
2023-03-01T00:10:09.177Z,1.10
2023-03-01T00:12:37.430Z,0.93
2023-03-01T00:15:05.868Z,0.97
2023-03-01T00:17:32.904Z,1.30
2023-03-01T00:19:59.801Z,1.57
2023-03-01T00:22:28.533Z,1.57
2023-03-01T00:24:55.556Z,1.23
2023-03-01T00:27:22.635Z,1.60
2023-03-01T00:29:49.650Z,2.73
2023-03-01T00:32:16.754Z,1.90
2023-03-01T00:34:43.861Z,1.17
2023-03-01T00:37:10.804Z,1.50
2023-03-01T00:39:38.326Z,1.87
2023-03-01T00:42:05.618Z,1.87
2023-03-01T00:44:32.613Z,2.40
2023-03-01T00:46:59.591Z,2.00
2023-03-01T00:49:28.619Z,2.57
2023-03-01T00:51:56.936Z,2.37
2023-03-01T00:54:24.433Z,3.10
2023-03-01T00:56:51.359Z,2.47
2023-03-01T00:59:18.262Z,2.37
2023-03-01T01:01:45.325Z,2.17
2023-03-01T01:04:13.228Z,2.77
2023-03-01T01:06:44.953Z,2.30
2023-03-01T01:09:19.653Z,2.20
2023-03-01T01:11:51.397Z,2.23
2023-03-01T01:14:19.106Z,3.03
2023-03-01T01:16:46.096Z,2.30
2023-03-01T01:19:14.298Z,2.57
2023-03-01T01:21:43.969Z,1.97
2023-03-01T01:24:11.038Z,2.13
2023-03-01T01:26:37.980Z,1.67
2023-03-01T01:29:05.832Z,2.37
2023-03-01T01:31:33.497Z,2.13
2023-03-01T01:34:01.584Z,2.53
2023-03-01T01:36:28.846Z,2.00
2023-03-01T01:38:56.148Z,2.10
2023-03-01T01:41:23.329Z,1.83
2023-03-01T01:44:20.433Z,2.10
2023-03-01T01:46:52.076Z,2.25
2023-03-01T01:49:25.691Z,1.80
2023-03-01T01:51:59.162Z,1.80
2023-03-01T01:54:29.270Z,1.57
2023-03-01T01:56:58.120Z,2.00
2023-03-01T01:59:25.602Z,2.07
2023-03-01T02:01:53.320Z,1.97
2023-03-01T02:04:20.376Z,2.07
2023-03-01T02:07:00.372Z,1.70
2023-03-01T02:09:27.362Z,2.20
2023-03-01T02:11:54.869Z,1.80
2023-03-01T02:14:21.879Z,1.13
2023-03-01T02:16:48.841Z,1.50
2023-03-01T02:19:52.931Z,0.90
2023-03-01T02:22:26.397Z,0.60
2023-03-01T02:25:08.492Z,0.30
2023-03-01T02:27:57.251Z,0.10
2023-03-01T02:30:24.324Z,0.10
2023-03-01T02:32:52.983Z,0.20
2023-03-01T02:35:20.131Z,0.27
2023-03-01T02:37:47.071Z,0.10
2023-03-01T02:40:17.774Z,0.20
2023-03-01T02:42:51.267Z,0.10
2023-03-01T02:45:18.426Z,0.40
2023-03-01T02:47:45.312Z,0.43
2023-03-01T02:50:48.182Z,0.30
2023-03-01T02:53:29.806Z,0.20
2023-03-01T02:55:56.862Z,0.20
2023-03-01T02:58:24.641Z,0.10
2023-03-01T03:00:52.301Z,0.20
2023-03-01T03:03:23.450Z,0.40
2023-03-01T03:05:50.704Z,0.10
2023-03-01T03:08:24.837Z,0.00
2023-03-01T03:10:52.399Z,0.50
2023-03-01T03:13:20.160Z,0.13
2023-03-01T03:15:47.155Z,0.30
2023-03-01T03:18:15.774Z,0.10
2023-03-01T03:20:42.902Z,0.10
2023-03-01T03:23:09.837Z,0.20
2023-03-01T03:25:38.735Z,0.20
2023-03-01T03:28:10.470Z,0.10
2023-03-01T03:30:42.178Z,0.17
2023-03-01T03:33:12.962Z,0.10
2023-03-01T03:35:43.213Z,0.10
2023-03-01T03:38:16.549Z,0.10
2023-03-01T03:40:48.214Z,0.17
2023-03-01T03:43:20.287Z,0.20
2023-03-01T03:45:47.953Z,0.13
2023-03-01T03:48:15.084Z,0.17
2023-03-01T03:50:42.555Z,0.10
2023-03-01T03:53:11.555Z,0.10
2023-03-01T03:55:40.105Z,0.10
2023-03-01T03:58:08.512Z,0.10
2023-03-01T04:00:37.235Z,0.00
2023-03-01T04:03:07.401Z,0.10
2023-03-01T04:05:34.507Z,0.00
2023-03-01T04:08:04.143Z,0.10
2023-03-01T04:10:32.731Z,0.00
2023-03-01T04:12:59.710Z,0.30
2023-03-01T04:15:27.153Z,0.00
2023-03-01T04:17:54.568Z,0.00
2023-03-01T04:20:26.601Z,0.00
2023-03-01T04:22:58.373Z,0.07
2023-03-01T04:25:25.620Z,0.07
2023-03-01T04:27:53.023Z,0.00
2023-03-01T04:30:20.145Z,0.10
2023-03-01T04:32:47.084Z,0.10
2023-03-01T04:35:14.012Z,0.00
2023-03-01T04:37:42.701Z,0.00
2023-03-01T04:40:16.529Z,0.00
2023-03-01T04:42:43.948Z,0.00
2023-03-01T04:45:14.165Z,0.00
2023-03-01T04:47:42.201Z,0.00
2023-03-01T04:50:10.063Z,0.00
2023-03-01T04:52:37.088Z,0.00
2023-03-01T04:55:04.556Z,0.00
2023-03-01T04:57:31.803Z,0.10
2023-03-01T04:59:58.747Z,0.00
2023-03-01T05:02:26.016Z,0.00
2023-03-01T05:04:53.105Z,0.00
2023-03-01T05:07:20.286Z,0.10
2023-03-01T05:09:47.555Z,0.00
2023-03-01T05:12:15.254Z,0.00
2023-03-01T05:14:42.477Z,0.10
2023-03-01T05:17:09.345Z,0.00
2023-03-01T05:19:36.675Z,0.00
2023-03-01T05:22:04.809Z,0.00
2023-03-01T05:24:37.982Z,0.10
2023-03-01T05:27:04.934Z,0.10
2023-03-01T05:29:32.413Z,0.00
2023-03-01T05:32:00.443Z,0.00
2023-03-01T05:34:32.233Z,0.00
2023-03-01T05:36:59.387Z,0.10
2023-03-01T05:39:27.781Z,0.10
2023-03-01T05:41:55.801Z,0.00
2023-03-01T05:44:25.565Z,0.00
2023-03-01T05:46:52.656Z,0.00
2023-03-01T05:49:19.665Z,0.00
2023-03-01T05:51:51.017Z,0.07
2023-03-01T05:54:18.472Z,0.00
2023-03-01T05:56:45.689Z,0.00
2023-03-01T05:59:12.705Z,0.00
2023-03-01T06:01:39.796Z,0.00
2023-03-01T06:04:06.944Z,0.00
2023-03-01T06:06:40.465Z,0.07
2023-03-01T06:09:08.360Z,0.00
2023-03-01T06:11:36.240Z,0.00
2023-03-01T06:14:03.373Z,0.10
2023-03-01T06:16:30.612Z,0.00
2023-03-01T06:18:57.789Z,0.10
2023-03-01T06:21:25.027Z,0.00
2023-03-01T06:23:52.873Z,0.00
2023-03-01T06:26:20.171Z,0.10
2023-03-01T06:28:47.240Z,0.00
2023-03-01T06:31:14.268Z,0.10
2023-03-01T06:33:41.369Z,0.00
2023-03-01T06:36:09.082Z,0.03
2023-03-01T06:38:36.102Z,0.10
2023-03-01T06:41:03.123Z,0.20
2023-03-01T06:43:30.115Z,0.10
2023-03-01T06:45:57.166Z,0.30
2023-03-01T06:48:24.235Z,0.00
2023-03-01T06:50:51.241Z,0.20
2023-03-01T06:53:18.209Z,0.00
2023-03-01T06:55:54.425Z,0.10
2023-03-01T06:58:21.444Z,0.10
2023-03-01T07:00:48.360Z,0.00
2023-03-01T07:03:15.291Z,0.10
2023-03-01T07:05:42.239Z,0.10
2023-03-01T07:08:09.405Z,0.10
2023-03-01T07:10:36.688Z,0.10
2023-03-01T07:13:03.995Z,0.17
2023-03-01T07:15:30.935Z,0.00
2023-03-01T07:17:58.150Z,0.10
2023-03-01T07:20:26.318Z,0.00
2023-03-01T07:22:55.560Z,0.00
2023-03-01T07:25:22.860Z,0.10
2023-03-01T07:27:51.506Z,0.00
2023-03-01T07:30:18.701Z,0.00
2023-03-01T07:32:46.495Z,0.00
2023-03-01T07:35:13.750Z,0.30
2023-03-01T07:37:40.669Z,0.00
2023-03-01T07:40:08.633Z,0.00
2023-03-01T07:42:35.649Z,0.10
2023-03-01T07:45:02.626Z,0.00
2023-03-01T07:47:29.570Z,0.07
2023-03-01T07:49:56.541Z,0.00
2023-03-01T07:52:23.593Z,0.10
2023-03-01T07:54:51.348Z,0.73
2023-03-01T07:57:18.580Z,0.00
2023-03-01T07:59:46.040Z,0.00
2023-03-01T08:02:13.211Z,0.10
2023-03-01T08:04:40.324Z,0.03
2023-03-01T08:07:07.369Z,0.10
2023-03-01T08:09:36.844Z,0.10
2023-03-01T08:12:05.477Z,0.00
2023-03-01T08:14:34.266Z,0.00
2023-03-01T08:17:03.860Z,0.00
2023-03-01T08:19:31.459Z,0.00
2023-03-01T08:21:59.463Z,0.00
2023-03-01T08:24:26.619Z,0.07
2023-03-01T08:26:53.669Z,0.00
2023-03-01T08:29:20.691Z,0.00
2023-03-01T08:31:47.957Z,0.00
2023-03-01T08:34:17.034Z,0.00
2023-03-01T08:36:46.182Z,0.00
2023-03-01T08:39:14.760Z,0.00
2023-03-01T08:41:41.860Z,0.00
2023-03-01T08:44:09.807Z,0.00
2023-03-01T08:46:38.659Z,0.00
2023-03-01T08:49:12.152Z,0.00
2023-03-01T08:51:39.156Z,0.00
2023-03-01T08:54:07.140Z,0.00
2023-03-01T08:56:34.207Z,0.00
2023-03-01T08:59:01.162Z,0.00
2023-03-01T09:01:28.238Z,0.00
2023-03-01T09:03:55.428Z,0.03
2023-03-01T09:06:22.701Z,0.00
2023-03-01T09:08:50.365Z,0.00
2023-03-01T09:11:21.100Z,0.00
2023-03-01T09:13:49.169Z,0.00
2023-03-01T09:16:18.606Z,0.10
2023-03-01T09:18:46.024Z,0.00
2023-03-01T09:21:16.902Z,0.00
2023-03-01T09:23:46.383Z,0.00
2023-03-01T09:26:22.239Z,0.00
2023-03-01T09:28:55.224Z,0.00
2023-03-01T09:31:23.122Z,0.00
2023-03-01T09:33:51.811Z,0.00
2023-03-01T09:36:21.965Z,0.00
2023-03-01T09:42:17.221Z,0.87
2023-03-01T09:44:59.425Z,0.10
2023-03-01T09:47:29.134Z,0.10
2023-03-01T09:50:22.913Z,0.00
2023-03-01T09:53:07.800Z,0.00
2023-03-01T09:55:44.950Z,0.10
2023-03-01T09:58:24.161Z,0.10
2023-03-01T10:00:51.466Z,0.00
2023-03-01T10:03:32.177Z,0.00
2023-03-01T10:06:33.954Z,0.00
2023-03-01T10:09:07.148Z,0.00
2023-03-01T10:11:38.465Z,0.00
2023-03-01T10:14:07.235Z,0.00
2023-03-01T10:16:47.348Z,0.00
2023-03-01T10:19:26.397Z,0.00
2023-03-01T10:21:53.362Z,0.00
2023-03-01T10:24:22.523Z,0.00
2023-03-01T10:27:03.134Z,0.00
2023-03-01T10:29:40.997Z,0.00
2023-03-01T10:32:08.393Z,0.00
2023-03-01T10:34:36.220Z,0.10
2023-03-01T10:37:11.589Z,0.00
2023-03-01T10:39:38.547Z,0.00
2023-03-01T10:42:07.195Z,0.00
2023-03-01T10:44:41.686Z,0.35
2023-03-01T10:47:18.132Z,0.00
2023-03-01T10:49:56.394Z,0.00
2023-03-01T10:52:29.190Z,0.08
2023-03-01T10:54:58.499Z,0.00
2023-03-01T10:57:39.424Z,0.00
2023-03-01T11:00:14.010Z,0.00
2023-03-01T11:02:40.943Z,0.00
2023-03-01T11:05:14.024Z,0.00
2023-03-01T11:07:57.740Z,0.00
2023-03-01T11:10:29.549Z,0.20
2023-03-01T11:13:29.367Z,0.30
2023-03-01T11:16:00.979Z,0.00
2023-03-01T11:18:44.348Z,0.00
2023-03-01T11:21:13.704Z,0.00
2023-03-01T11:23:40.863Z,0.00
2023-03-01T11:26:11.389Z,0.10
2023-03-01T11:28:39.391Z,0.00
2023-03-01T11:31:09.112Z,1.77
2023-03-01T11:33:56.404Z,0.00
2023-03-01T11:36:47.009Z,0.00
2023-03-01T11:39:24.915Z,0.00
2023-03-01T11:41:54.103Z,0.77
2023-03-01T11:44:29.177Z,0.10
2023-03-01T11:47:02.073Z,0.00
2023-03-01T11:49:29.277Z,0.00
2023-03-01T11:52:17.255Z,0.00
2023-03-01T11:54:54.205Z,0.00
2023-03-01T11:57:45.020Z,0.00
2023-03-01T12:00:18.745Z,0.00
2023-03-01T12:03:19.082Z,0.00
2023-03-01T12:06:04.721Z,0.70
2023-03-01T12:08:50.405Z,0.00
2023-03-01T12:12:02.806Z,0.00
2023-03-01T12:15:08.137Z,0.00
2023-03-01T12:18:04.482Z,0.00
2023-03-01T12:20:50.186Z,0.00
2023-03-01T12:23:41.668Z,0.00
2023-03-01T12:26:21.262Z,0.00
2023-03-01T12:29:24.277Z,0.00
2023-03-01T12:32:02.888Z,0.00
2023-03-01T12:34:56.735Z,0.00
2023-03-01T12:37:26.954Z,0.00
2023-03-01T12:40:13.671Z,0.00
2023-03-01T12:45:56.037Z,0.00
2023-03-01T12:48:40.896Z,0.00
2023-03-01T12:51:13.073Z,0.00
2023-03-01T12:53:50.186Z,0.00
2023-03-01T12:56:20.786Z,0.00
2023-03-01T12:58:50.624Z,0.00
2023-03-01T13:01:32.257Z,0.00
2023-03-01T13:04:12.801Z,0.00
2023-03-01T13:06:52.869Z,0.00
2023-03-01T13:09:53.052Z,0.00
2023-03-01T13:12:46.077Z,0.20
2023-03-01T13:15:34.429Z,0.00
2023-03-01T13:18:17.005Z,0.30
2023-03-01T13:20:44.190Z,0.00
2023-03-01T13:23:20.699Z,0.00
2023-03-01T13:26:00.061Z,0.00
2023-03-01T13:28:30.131Z,0.00
2023-03-01T13:30:57.091Z,0.70
2023-03-01T13:33:28.563Z,0.00
2023-03-01T13:36:00.125Z,0.60
2023-03-01T13:39:01.136Z,0.40
2023-03-01T13:41:40.314Z,0.50
2023-03-01T13:44:19.208Z,0.20
2023-03-01T13:46:46.274Z,0.40
2023-03-01T13:49:18.278Z,0.20
2023-03-01T13:51:47.908Z,0.10
2023-03-01T13:54:19.166Z,0.40
2023-03-01T13:56:46.274Z,0.20
2023-03-01T13:59:20.136Z,0.00
2023-03-01T14:01:56.557Z,0.10
2023-03-01T14:06:51.762Z,0.30
2023-03-01T14:09:28.253Z,0.10
2023-03-01T14:14:43.520Z,0.17
2023-03-01T14:17:20.325Z,0.00
2023-03-01T14:19:48.279Z,0.20
2023-03-01T14:22:31.171Z,0.10
2023-03-01T14:25:01.754Z,0.30
2023-03-01T14:27:42.796Z,0.03
2023-03-01T14:30:22.408Z,0.07
2023-03-01T14:33:03.526Z,0.00
2023-03-01T14:35:32.713Z,0.00
2023-03-01T14:37:59.676Z,0.03
2023-03-01T14:40:28.261Z,0.00
2023-03-01T14:42:56.143Z,0.10
2023-03-01T14:45:23.897Z,0.10
2023-03-01T14:47:51.824Z,0.10
2023-03-01T14:50:25.739Z,0.00
2023-03-01T14:53:03.386Z,0.00
2023-03-01T14:55:41.643Z,0.00
2023-03-01T14:58:14.652Z,0.00
2023-03-01T15:01:04.971Z,0.13
2023-03-01T15:04:04.450Z,0.00
2023-03-01T15:06:31.596Z,0.00
2023-03-01T15:08:58.678Z,0.00
2023-03-01T15:11:29.484Z,0.00
2023-03-01T15:13:56.537Z,0.00
2023-03-01T15:16:32.075Z,0.00
2023-03-01T15:19:04.172Z,0.00
2023-03-01T15:21:38.723Z,0.10
2023-03-01T15:24:24.981Z,0.00
2023-03-01T15:26:58.804Z,0.10
2023-03-01T15:29:31.285Z,0.00
2023-03-01T15:32:01.221Z,0.00
2023-03-01T15:34:38.619Z,0.00
2023-03-01T15:37:09.520Z,0.00
2023-03-01T15:39:44.195Z,0.20
2023-03-01T15:42:34.967Z,0.00
2023-03-01T15:45:12.620Z,0.07
2023-03-01T15:47:40.875Z,0.00
2023-03-01T15:50:29.439Z,0.20
2023-03-01T15:52:56.901Z,0.00
2023-03-01T15:55:29.620Z,0.00
2023-03-01T15:58:01.905Z,0.10
2023-03-01T16:00:29.862Z,0.00
2023-03-01T16:02:56.897Z,0.00
2023-03-01T16:05:28.784Z,0.00
2023-03-01T16:07:57.039Z,0.00
2023-03-01T16:10:24.327Z,0.00
2023-03-01T16:12:53.380Z,0.00
2023-03-01T16:15:25.292Z,0.00
2023-03-01T16:17:53.330Z,0.00
2023-03-01T16:20:28.532Z,0.00
2023-03-01T16:23:01.165Z,0.13
2023-03-01T16:25:28.469Z,0.10
2023-03-01T16:27:56.465Z,0.20
2023-03-01T16:30:23.837Z,0.05
2023-03-01T16:32:51.198Z,0.17
2023-03-01T16:35:20.072Z,0.00
2023-03-01T16:37:47.914Z,0.87
2023-03-01T16:40:28.011Z,0.20
2023-03-01T16:43:01.329Z,0.10
2023-03-01T16:45:40.753Z,0.13
2023-03-01T16:48:07.793Z,0.20
2023-03-01T16:50:34.680Z,0.10
2023-03-01T16:53:01.631Z,0.10
2023-03-01T16:55:29.019Z,0.10
2023-03-01T16:57:56.235Z,0.07
2023-03-01T17:00:23.982Z,0.00
2023-03-01T17:02:52.724Z,0.00
2023-03-01T17:05:21.980Z,0.00
2023-03-01T17:07:49.076Z,0.10
2023-03-01T17:10:16.230Z,0.00
2023-03-01T17:12:47.802Z,0.10
2023-03-01T17:15:14.968Z,0.10
2023-03-01T17:17:42.013Z,0.00
2023-03-01T17:20:10.438Z,0.10
2023-03-01T17:22:40.038Z,0.00
2023-03-01T17:25:10.424Z,0.20
2023-03-01T17:27:38.134Z,0.00
2023-03-01T17:30:05.607Z,0.00
2023-03-01T17:32:32.796Z,0.10
2023-03-01T17:34:59.723Z,0.03
2023-03-01T17:37:26.600Z,0.10
2023-03-01T17:39:53.612Z,0.10
2023-03-01T17:42:20.837Z,0.00
2023-03-01T17:44:47.943Z,0.00
2023-03-01T17:47:19.481Z,0.20
2023-03-01T17:49:46.545Z,0.30
2023-03-01T17:52:13.457Z,0.10
2023-03-01T17:54:40.422Z,0.17
2023-03-01T17:57:07.411Z,0.03
2023-03-01T17:59:37.148Z,0.00
2023-03-01T18:02:04.361Z,0.00
2023-03-01T18:04:32.596Z,0.00
2023-03-01T18:06:59.874Z,0.00
2023-03-01T18:09:27.370Z,0.00
2023-03-01T18:11:55.622Z,0.17
2023-03-01T18:14:22.673Z,0.10
2023-03-01T18:16:49.833Z,0.10
2023-03-01T18:19:16.870Z,0.10
2023-03-01T18:21:44.680Z,0.10
2023-03-01T18:24:12.097Z,0.10
2023-03-01T18:26:40.196Z,0.13
2023-03-01T18:29:08.036Z,0.10
2023-03-01T18:31:35.208Z,0.10
2023-03-01T18:34:02.291Z,0.10
2023-03-01T18:36:31.508Z,0.07
2023-03-01T18:38:58.855Z,0.10
2023-03-01T18:41:27.355Z,0.20
2023-03-01T18:43:54.736Z,0.10
2023-03-01T18:46:22.196Z,0.33
2023-03-01T18:48:49.569Z,0.10
2023-03-01T18:51:21.558Z,0.10
2023-03-01T18:53:51.138Z,0.20
2023-03-01T18:56:18.453Z,0.10
2023-03-01T18:59:13.054Z,0.00
2023-03-01T19:01:40.640Z,0.00
2023-03-01T19:04:09.771Z,0.30
2023-03-01T19:06:37.089Z,0.63
2023-03-01T19:09:04.905Z,0.00
2023-03-01T19:11:33.512Z,0.00
2023-03-01T19:14:05.153Z,0.00
2023-03-01T19:16:33.299Z,0.00
2023-03-01T19:19:01.442Z,0.00
2023-03-01T19:21:30.082Z,0.10
2023-03-01T19:23:59.251Z,0.00
2023-03-01T19:26:27.133Z,0.00
2023-03-01T19:28:55.610Z,0.00
2023-03-01T19:31:25.684Z,0.07
2023-03-01T19:33:59.414Z,0.00
2023-03-01T19:36:35.360Z,0.00
2023-03-01T19:39:06.376Z,0.00
2023-03-01T19:41:33.426Z,0.10
2023-03-01T19:44:04.444Z,0.00
2023-03-01T19:46:32.130Z,0.00
2023-03-01T19:49:00.443Z,0.00
2023-03-01T19:51:27.734Z,0.00
2023-03-01T19:53:54.992Z,0.00
2023-03-01T19:56:22.746Z,0.00
2023-03-01T19:58:50.472Z,0.00
2023-03-01T20:01:19.874Z,0.20
2023-03-01T20:03:47.080Z,0.00
2023-03-01T20:06:16.037Z,0.00
2023-03-01T20:08:44.571Z,0.00
2023-03-01T20:11:12.471Z,0.20
2023-03-01T20:13:39.554Z,0.00
2023-03-01T20:16:07.780Z,0.00
2023-03-01T20:18:35.037Z,0.00
2023-03-01T20:21:02.759Z,0.10
2023-03-01T20:23:30.937Z,0.00
2023-03-01T20:26:08.664Z,0.00
2023-03-01T20:28:35.977Z,0.10
2023-03-01T20:31:08.138Z,0.10
2023-03-01T20:33:35.117Z,0.10
2023-03-01T20:36:02.054Z,0.10
2023-03-01T20:38:30.062Z,0.00
2023-03-01T20:41:01.642Z,0.00
2023-03-01T20:43:28.714Z,0.00
2023-03-01T20:45:55.750Z,0.00
2023-03-01T20:48:22.979Z,0.03
2023-03-01T20:50:49.909Z,0.00
2023-03-01T20:53:17.069Z,0.00
2023-03-01T20:55:44.290Z,0.07
2023-03-01T20:58:11.185Z,0.00
2023-03-01T21:00:38.545Z,0.00
2023-03-01T21:03:05.575Z,0.00
2023-03-01T21:05:32.891Z,0.10
2023-03-01T21:08:02.716Z,0.00
2023-03-01T21:10:30.799Z,0.00
2023-03-01T21:12:57.872Z,0.00
2023-03-01T21:15:29.378Z,0.00
2023-03-01T21:17:56.676Z,0.00
2023-03-01T21:20:23.907Z,0.00
2023-03-01T21:22:50.760Z,0.10
2023-03-01T21:25:17.698Z,0.00
2023-03-01T21:27:44.659Z,0.00
2023-03-01T21:30:12.788Z,0.10
2023-03-01T21:32:39.777Z,0.00
2023-03-01T21:35:07.141Z,0.00
2023-03-01T21:37:34.231Z,0.00
2023-03-01T21:40:01.169Z,0.00
2023-03-01T21:42:28.182Z,0.00
2023-03-01T21:44:55.246Z,0.03
2023-03-01T21:47:22.204Z,0.00
2023-03-01T21:49:49.159Z,0.00
2023-03-01T21:52:16.861Z,0.00
2023-03-01T21:54:44.665Z,0.00
2023-03-01T21:57:12.046Z,0.00
2023-03-01T21:59:47.902Z,0.00
2023-03-01T22:02:16.817Z,0.05
2023-03-01T22:04:43.785Z,0.07
2023-03-01T22:07:12.980Z,0.00
2023-03-01T22:09:40.002Z,0.00
2023-03-01T22:12:07.201Z,0.00
2023-03-01T22:14:34.978Z,0.00
2023-03-01T22:17:02.131Z,0.00
2023-03-01T22:19:30.222Z,0.10
2023-03-01T22:21:57.221Z,0.00
2023-03-01T22:24:24.982Z,0.00
2023-03-01T22:26:52.429Z,0.00
2023-03-01T22:29:24.003Z,0.00
2023-03-01T22:31:51.550Z,0.00
2023-03-01T22:34:18.712Z,0.00
2023-03-01T22:36:46.055Z,0.30
2023-03-01T22:39:14.198Z,0.00
2023-03-01T22:41:44.053Z,0.00
2023-03-01T22:44:15.217Z,0.00
2023-03-01T22:46:42.793Z,0.00
2023-03-01T22:49:10.205Z,0.00
2023-03-01T22:51:38.462Z,0.10
2023-03-01T22:54:05.524Z,0.10
2023-03-01T22:56:34.265Z,0.00
2023-03-01T22:59:03.074Z,0.00
2023-03-01T23:01:30.536Z,0.00
2023-03-01T23:03:57.883Z,0.30
2023-03-01T23:06:24.983Z,0.00
2023-03-01T23:08:53.368Z,0.10
2023-03-01T23:11:24.802Z,0.10
2023-03-01T23:13:53.725Z,0.10
2023-03-01T23:16:26.013Z,0.10
2023-03-01T23:18:59.006Z,0.20
2023-03-01T23:21:26.052Z,0.10
2023-03-01T23:23:54.578Z,0.10
2023-03-01T23:26:22.357Z,0.10
2023-03-01T23:28:50.861Z,0.10
2023-03-01T23:31:18.298Z,0.10
2023-03-01T23:33:45.940Z,0.00
2023-03-01T23:36:22.996Z,0.10
2023-03-01T23:38:51.888Z,0.00
2023-03-01T23:41:22.968Z,0.00
2023-03-01T23:43:51.513Z,0.00
2023-03-01T23:46:19.758Z,0.00
2023-03-01T23:48:46.847Z,0.00
2023-03-01T23:51:14.196Z,0.00
2023-03-01T23:53:54.926Z,0.20
2023-03-01T23:56:33.231Z,0.10
2023-03-01T23:59:02.080Z,0.00
